Time;durP1;ratioP1;P1;durP2;ratioP2;P2;SDS_P1;SDS_P2;PMS_P1;PMS_P2;Temp;Humidity;BMP_temperature;BMP_pressure;BME280_temperature;BME280_humidity;BME280_pressure;Samples;Min_cycle;Max_cycle;Signal;HPM_P1;HPM_P2
2021/07/21 00:02:15;;;;;;;11.93;5.15;;;;;;;20.71;81.30;98173.34;5092215;28;20028;-74
2021/07/21 00:04:41;;;;;;;7.72;6.25;;;;;;;20.69;80.85;98168.16;5090176;28;20030;-74
2021/07/21 00:07:07;;;;;;;9.10;5.45;;;;;;;20.72;80.98;98161.88;5092659;28;20400;-75
2021/07/21 00:09:33;;;;;;;8.63;5.60;;;;;;;20.67;81.40;98170.50;5091364;28;20537;-75
2021/07/21 00:14:43;;;;;;;8.60;5.45;;;;;;;20.51;81.73;98163.25;5090749;28;20403;-74
2021/07/21 00:17:19;;;;;;;8.68;6.18;;;;;;;20.58;81.24;98166.25;5091129;28;20032;-73
2021/07/21 00:22:30;;;;;;;10.88;6.07;;;;;;;20.34;83.84;98166.34;5091312;28;20058;-76
2021/07/21 00:24:56;;;;;;;7.30;5.90;;;;;;;20.18;84.44;98161.50;5091301;28;20044;-74
2021/07/21 00:27:23;;;;;;;7.15;5.68;;;;;;;20.11;84.69;98172.41;5090796;28;20024;-74
2021/07/21 00:29:48;;;;;;;9.02;5.63;;;;;;;20.09;84.69;98180.31;5089776;28;20024;-74
2021/07/21 00:32:14;;;;;;;11.38;5.82;;;;;;;20.01;84.92;98166.56;5091449;28;20438;-74
2021/07/21 00:34:39;;;;;;;13.52;6.53;;;;;;;20.00;85.08;98168.53;5090908;28;20082;-75
2021/07/21 00:37:06;;;;;;;9.35;6.18;;;;;;;20.04;85.54;98175.00;5090899;28;20081;-75
2021/07/21 00:39:32;;;;;;;13.52;6.25;;;;;;;20.12;84.71;98182.38;5089777;28;20031;-74
2021/07/21 00:41:57;;;;;;;8.32;6.28;;;;;;;20.12;84.68;98185.16;5091108;28;20028;-74
2021/07/21 00:44:23;;;;;;;15.60;6.25;;;;;;;20.04;85.01;98191.66;5090875;28;20537;-74
2021/07/21 00:46:48;;;;;;;12.82;6.53;;;;;;;19.86;85.83;98179.19;5089260;28;20035;-75
2021/07/21 00:49:14;;;;;;;9.07;5.93;;;;;;;19.83;86.05;98179.91;5090894;28;20051;-75
2021/07/21 00:51:39;;;;;;;10.82;5.97;;;;;;;19.78;85.39;98180.16;5090731;28;20459;-74
2021/07/21 00:54:05;;;;;;;7.88;6.00;;;;;;;19.61;85.94;98161.78;5090955;28;20369;-73
2021/07/21 00:56:31;;;;;;;9.90;5.68;;;;;;;19.59;86.34;98177.16;5089476;28;20128;-73
2021/07/21 00:58:57;;;;;;;9.05;6.40;;;;;;;19.64;86.72;98188.84;5090770;28;20361;-74
2021/07/21 01:01:22;;;;;;;8.32;6.18;;;;;;;19.59;86.65;98179.94;5091638;28;20024;-74
2021/07/21 01:03:48;;;;;;;9.38;5.47;;;;;;;19.58;86.80;98178.31;5089127;28;20035;-74
2021/07/21 01:06:13;;;;;;;8.93;5.82;;;;;;;19.60;86.74;98184.34;5090547;28;20028;-75
2021/07/21 01:08:39;;;;;;;12.50;6.18;;;;;;;19.60;86.54;98182.38;5090560;28;20388;-75
2021/07/21 01:11:30;;;;;;;9.45;5.85;;;;;;;19.61;86.42;98189.53;5089303;28;20028;-76
2021/07/21 01:14:32;;;;;;;8.30;5.90;;;;;;;19.67;86.88;98187.34;5090466;28;20038;-75
2021/07/21 01:17:04;;;;;;;7.05;5.55;;;;;;;19.55;86.13;98184.56;5021981;28;20097;-74
2021/07/21 01:19:51;;;;;;;10.90;6.32;;;;;;;19.57;86.34;98193.38;5088795;28;20507;-73
2021/07/21 01:22:29;;;;;;;8.98;6.57;;;;;;;19.53;85.99;98193.25;5090407;28;20020;-73
2021/07/21 01:25:15;;;;;;;8.18;6.00;;;;;;;19.50;85.97;98198.69;5090825;28;20024;-74
2021/07/21 01:27:56;;;;;;;12.15;5.90;;;;;;;19.51;85.68;98194.75;5094495;28;20024;-74
2021/07/21 01:30:26;;;;;;;12.65;6.28;;;;;;;19.48;85.42;98195.47;5094424;28;20089;-73
2021/07/21 01:33:16;;;;;;;11.90;6.18;;;;;;;19.44;85.53;98200.06;5094622;28;20042;-74
2021/07/21 01:35:52;;;;;;;11.35;6.43;;;;;;;19.46;85.23;98203.31;5093709;28;20493;-74
2021/07/21 01:38:32;;;;;;;8.25;6.07;;;;;;;19.45;85.67;98202.50;5092844;28;20430;-74
2021/07/21 01:41:03;;;;;;;8.93;6.93;;;;;;;19.33;85.37;98196.13;5092923;28;20032;-75
2021/07/21 01:43:31;;;;;;;8.52;6.05;;;;;;;19.38;84.74;98201.44;5093922;28;20086;-74
2021/07/21 01:45:59;;;;;;;13.05;5.72;;;;;;;19.43;84.63;98204.00;5094034;28;20019;-77
2021/07/21 01:48:31;;;;;;;6.32;5.22;;;;;;;19.38;84.95;98201.44;5093956;28;20568;-77
2021/07/21 01:50:58;;;;;;;13.48;7.55;;;;;;;19.21;85.42;98183.84;5092754;28;20118;-74
2021/07/21 01:53:25;;;;;;;9.38;6.55;;;;;;;19.25;85.36;98198.66;5093949;28;20032;-74
2021/07/21 01:55:51;;;;;;;11.77;6.82;;;;;;;19.23;85.25;98184.31;5094096;28;20039;-75
2021/07/21 01:58:18;;;;;;;15.85;6.57;;;;;;;19.30;85.19;98200.38;5094097;28;20032;-73
2021/07/21 02:00:44;;;;;;;11.73;6.20;;;;;;;19.33;84.84;98198.91;5093748;28;21030;-73
2021/07/21 02:03:10;;;;;;;8.85;6.18;;;;;;;19.29;84.64;98201.56;5092912;28;20047;-75
2021/07/21 02:05:37;;;;;;;12.20;6.88;;;;;;;19.30;84.80;98207.88;5092423;28;20028;-74
2021/07/21 02:08:04;;;;;;;8.77;5.60;;;;;;;19.32;84.14;98203.63;5092396;28;20082;-75
2021/07/21 02:10:32;;;;;;;8.32;6.38;;;;;;;19.26;84.90;98210.56;5093809;28;20028;-77
2021/07/21 02:13:10;;;;;;;9.40;6.05;;;;;;;19.33;84.61;98196.91;5093255;28;20050;-75
2021/07/21 02:15:36;;;;;;;11.25;5.55;;;;;;;19.43;84.48;98195.66;5092259;28;20027;-73
2021/07/21 02:18:03;;;;;;;7.82;6.10;;;;;;;19.44;85.52;98205.63;5092007;28;20392;-73
2021/07/21 02:20:29;;;;;;;14.95;6.05;;;;;;;19.44;85.84;98208.41;5093485;28;20028;-74
2021/07/21 02:22:55;;;;;;;19.30;8.48;;;;;;;19.27;87.12;98214.94;5093520;28;20099;-74
2021/07/21 02:25:23;;;;;;;11.82;6.18;;;;;;;19.34;87.23;98212.41;5093151;28;20111;-75
2021/07/21 02:27:49;;;;;;;9.05;5.40;;;;;;;19.18;88.70;98212.28;5093353;28;20077;-74
2021/07/21 02:30:15;;;;;;;11.32;6.45;;;;;;;19.10;89.18;98202.13;5093507;28;20021;-75
2021/07/21 02:32:50;;;;;;;9.40;5.47;;;;;;;18.85;91.58;98210.72;5093462;28;20036;-76
2021/07/21 02:35:20;;;;;;;9.50;6.37;;;;;;;18.81;92.22;98218.91;5093117;28;20089;-75
2021/07/21 02:37:50;;;;;;;13.45;5.60;;;;;;;18.83;92.47;98227.69;5090924;28;20024;-75
2021/07/21 02:40:17;;;;;;;10.20;6.13;;;;;;;18.77;92.95;98225.47;5093080;28;20028;-73
2021/07/21 02:42:43;;;;;;;11.48;7.38;;;;;;;18.67;93.76;98227.53;5092988;28;20031;-75
2021/07/21 02:45:09;;;;;;;11.68;7.05;;;;;;;18.65;93.57;98229.03;5093071;28;20032;-75
2021/07/21 02:47:35;;;;;;;10.02;6.25;;;;;;;18.69;93.63;98229.97;5092962;28;20111;-73
2021/07/21 02:50:01;;;;;;;9.15;6.38;;;;;;;18.69;94.00;98236.34;5091710;28;20115;-74
2021/07/21 02:52:32;;;;;;;9.93;5.55;;;;;;;18.66;94.49;98241.75;5091067;28;20087;-76
2021/07/21 02:55:16;;;;;;;14.20;7.28;;;;;;;18.72;94.08;98240.38;5092685;28;20027;-75
2021/07/21 02:58:01;;;;;;;15.27;8.20;;;;;;;18.53;95.23;98245.59;5091307;28;20077;-75
2021/07/21 03:00:29;;;;;;;11.27;6.53;;;;;;;18.46;95.50;98234.22;5092825;28;20020;-74
2021/07/21 03:02:56;;;;;;;11.50;9.55;;;;;;;18.51;95.34;98245.94;5093014;28;20114;-73
2021/07/21 03:05:25;;;;;;;11.95;7.78;;;;;;;18.64;94.08;98247.59;5092438;28;20111;-75
2021/07/21 03:07:54;;;;;;;12.23;7.82;;;;;;;18.62;94.26;98240.78;5092388;28;20077;-75
2021/07/21 03:10:19;;;;;;;12.93;6.93;;;;;;;18.53;94.63;98238.13;5092562;28;20028;-75
2021/07/21 03:13:16;;;;;;;10.27;6.78;;;;;;;18.54;93.86;98233.38;5090749;28;20073;-74
2021/07/21 03:15:45;;;;;;;14.05;7.45;;;;;;;18.49;94.38;98244.63;5093218;28;20024;-75
2021/07/21 03:18:17;;;;;;;12.05;6.60;;;;;;;18.49;94.00;98242.69;5092817;28;20032;-74
2021/07/21 03:20:44;;;;;;;7.50;6.00;;;;;;;18.34;94.82;98240.53;5091926;28;20046;-75
2021/07/21 03:23:12;;;;;;;12.27;6.43;;;;;;;18.44;94.98;98239.31;5090737;28;20404;-76
2021/07/21 03:25:39;;;;;;;9.00;6.07;;;;;;;18.55;94.20;98251.63;5091180;28;20028;-76
2021/07/21 03:28:05;;;;;;;8.25;6.07;;;;;;;18.60;93.46;98256.97;5078813;28;20020;-76
2021/07/21 03:30:32;;;;;;;9.90;6.28;;;;;;;18.48;94.54;98251.34;5091473;28;20552;-76
2021/07/21 03:32:59;;;;;;;9.30;6.72;;;;;;;18.35;95.44;98252.44;5081511;28;20060;-76
2021/07/21 03:35:31;;;;;;;10.38;7.05;;;;;;;18.21;96.50;98252.69;5070108;28;20052;-75
2021/07/21 03:37:58;;;;;;;8.68;6.30;;;;;;;18.32;96.15;98258.66;5070935;28;20382;-75
2021/07/21 03:40:25;;;;;;;10.30;7.00;;;;;;;18.28;96.04;98255.72;5071223;28;20033;-74
2021/07/21 03:42:52;;;;;;;10.63;7.20;;;;;;;18.33;95.96;98265.78;5071296;28;20158;-75
2021/07/21 03:45:18;;;;;;;9.25;6.30;;;;;;;18.27;96.15;98267.13;5083578;28;20047;-76
2021/07/21 03:47:46;;;;;;;10.73;6.53;;;;;;;18.26;96.20;98260.00;5091947;28;20024;-74
2021/07/21 03:50:12;;;;;;;10.40;6.72;;;;;;;18.25;96.39;98266.66;5091290;28;20028;-74
2021/07/21 03:52:40;;;;;;;10.60;6.47;;;;;;;18.52;94.87;98266.16;5091327;28;20024;-74
2021/07/21 03:55:10;;;;;;;34.83;7.97;;;;;;;18.45;95.14;98266.66;5091234;28;20115;-75
2021/07/21 03:57:36;;;;;;;11.50;6.18;;;;;;;18.48;94.69;98273.50;5091108;28;20068;-74
2021/07/21 04:00:06;;;;;;;12.25;7.20;;;;;;;18.48;94.87;98276.28;5091317;28;20812;-74
2021/07/21 04:02:32;;;;;;;10.45;7.28;;;;;;;18.50;94.79;98279.53;5091717;28;20028;-74
2021/07/21 04:04:58;;;;;;;10.35;7.20;;;;;;;18.51;94.18;98270.09;5089843;28;20012;-74
2021/07/21 04:07:24;;;;;;;16.83;6.95;;;;;;;18.54;94.12;98286.03;5090909;28;20480;-74
2021/07/21 04:09:51;;;;;;;9.15;5.88;;;;;;;18.58;94.39;98289.72;5091006;28;20027;-74
2021/07/21 04:12:19;;;;;;;16.25;9.43;;;;;;;18.51;94.24;98290.25;5091178;28;20110;-73
2021/07/21 04:14:48;;;;;;;11.60;7.85;;;;;;;18.61;93.81;98289.03;5089688;28;20032;-74
2021/07/21 04:17:16;;;;;;;13.93;7.15;;;;;;;18.59;93.75;98286.63;5090791;28;20500;-75
2021/07/21 04:19:42;;;;;;;16.60;6.13;;;;;;;18.71;92.48;98294.19;5090964;28;20024;-74
2021/07/21 04:22:08;;;;;;;15.20;7.45;;;;;;;18.64;92.88;98286.41;5074719;28;20027;-74
2021/07/21 04:24:34;;;;;;;9.48;6.20;;;;;;;18.66;92.45;98292.44;5070652;28;20416;-73
2021/07/21 04:27:03;;;;;;;10.98;7.05;;;;;;;18.68;92.22;98294.84;5070533;28;20024;-74
2021/07/21 04:29:32;;;;;;;11.90;7.03;;;;;;;18.75;91.72;98300.66;5070412;28;20150;-75
2021/07/21 04:31:59;;;;;;;11.95;6.78;;;;;;;18.77;91.40;98306.66;5070890;28;20133;-76
2021/07/21 04:34:25;;;;;;;10.60;6.90;;;;;;;18.82;90.26;98311.22;5070402;28;20437;-74
2021/07/21 04:36:51;;;;;;;11.85;7.40;;;;;;;18.89;90.35;98309.50;5070279;28;20107;-74
2021/07/21 04:39:19;;;;;;;10.00;6.65;;;;;;;18.99;89.99;98317.38;5070618;28;20100;-74
2021/07/21 04:41:48;;;;;;;9.45;6.53;;;;;;;18.87;89.97;98308.22;5070444;28;20037;-76
2021/07/21 04:44:14;;;;;;;14.13;6.43;;;;;;;18.97;89.55;98302.25;5052977;28;20024;-77
2021/07/21 04:46:41;;;;;;;9.50;6.82;;;;;;;18.94;90.38;98306.53;5070321;28;20550;-74
2021/07/21 04:49:09;;;;;;;14.43;6.50;;;;;;;18.91;89.99;98315.53;5070189;28;20035;-76
2021/07/21 04:51:36;;;;;;;14.40;7.45;;;;;;;19.10;89.17;98320.56;5070179;28;20023;-74
2021/07/21 04:54:05;;;;;;;12.77;7.45;;;;;;;18.88;89.78;98318.16;5070528;28;20020;-74
2021/07/21 04:56:30;;;;;;;11.23;7.47;;;;;;;18.89;89.17;98311.47;5070267;28;20028;-76
2021/07/21 04:58:56;;;;;;;12.55;6.80;;;;;;;19.01;87.58;98319.84;5070942;28;20024;-75
2021/07/21 05:01:21;;;;;;;8.10;6.45;;;;;;;18.90;88.17;98308.34;5069734;28;20025;-74
2021/07/21 05:03:47;;;;;;;11.30;7.22;;;;;;;18.97;88.94;98321.66;5069322;28;20024;-74
2021/07/21 05:06:12;;;;;;;9.55;6.43;;;;;;;19.04;87.06;98324.69;5068487;28;20024;-73
2021/07/21 05:08:38;;;;;;;11.30;7.53;;;;;;;19.14;86.12;98330.59;5070365;28;20078;-75
2021/07/21 05:11:03;;;;;;;12.07;7.05;;;;;;;19.10;84.69;98328.88;5083168;28;20537;-72
2021/07/21 05:13:29;;;;;;;14.52;7.18;;;;;;;19.29;83.27;98326.41;5091509;28;20032;-80
2021/07/21 05:15:54;;;;;;;12.32;7.70;;;;;;;19.49;82.04;98330.25;5071586;28;20016;-73
2021/07/21 05:18:20;;;;;;;15.40;6.68;;;;;;;19.43;82.66;98335.22;5087920;28;20050;-77
2021/07/21 05:20:45;;;;;;;13.25;7.75;;;;;;;19.53;81.38;98309.81;5089674;28;20039;-77
2021/07/21 05:23:11;;;;;;;13.85;7.45;;;;;;;19.52;81.42;98335.94;5090002;28;20016;-74
2021/07/21 05:25:38;;;;;;;10.50;6.32;;;;;;;19.41;80.82;98345.06;5090353;28;20106;-76
2021/07/21 05:28:06;;;;;;;12.73;7.57;;;;;;;19.29;80.16;98333.91;5090624;28;20035;-77
2021/07/21 05:30:31;;;;;;;15.38;9.00;;;;;;;19.64;78.16;98333.19;5089277;28;20441;-74
2021/07/21 05:32:57;;;;;;;10.57;7.82;;;;;;;20.27;75.61;98340.03;5092410;28;20020;-74
2021/07/21 05:35:22;;;;;;;12.38;7.78;;;;;;;20.28;76.00;98350.00;5090781;28;20154;-74
2021/07/21 05:37:48;;;;;;;12.15;8.45;;;;;;;20.08;74.89;98356.44;5091271;28;20085;-80
2021/07/21 05:40:14;;;;;;;10.20;7.40;;;;;;;20.28;73.54;98340.84;5090350;28;20040;-74
2021/07/21 05:42:39;;;;;;;11.38;8.15;;;;;;;20.26;73.03;98343.19;5088525;28;20055;-74
2021/07/21 05:45:05;;;;;;;12.70;6.88;;;;;;;20.23;72.99;98341.06;5090201;28;20020;-75
2021/07/21 05:47:30;;;;;;;9.82;7.68;;;;;;;20.46;71.94;98358.88;5087793;28;20554;-74
2021/07/21 05:49:56;;;;;;;9.50;7.00;;;;;;;20.48;74.16;98351.03;5088765;28;20024;-77
2021/07/21 05:52:21;;;;;;;8.93;6.45;;;;;;;20.75;72.55;98364.16;5089106;28;20020;-76
2021/07/21 05:54:47;;;;;;;16.15;8.70;;;;;;;20.65;73.05;98366.59;5088574;28;20139;-78
2021/07/21 05:57:13;;;;;;;14.23;8.40;;;;;;;20.74;72.68;98370.06;5088467;28;20118;-75
2021/07/21 05:59:39;;;;;;;12.18;7.63;;;;;;;20.81;72.53;98367.50;5089913;28;20036;-77
2021/07/21 06:02:04;;;;;;;12.15;9.23;;;;;;;20.91;72.30;98378.13;5090018;28;20032;-78
2021/07/21 06:04:30;;;;;;;11.73;7.80;;;;;;;21.09;73.13;98368.34;5088506;28;20028;-79
2021/07/21 06:06:56;;;;;;;16.02;8.15;;;;;;;20.97;73.56;98378.69;5088200;28;20030;-77
2021/07/21 06:09:22;;;;;;;29.75;8.85;;;;;;;21.31;71.35;98372.53;5087875;28;20430;-74
2021/07/21 06:11:47;;;;;;;11.88;8.27;;;;;;;21.27;71.84;98385.53;5087378;28;20070;-75
2021/07/21 06:14:13;;;;;;;13.43;7.68;;;;;;;21.33;71.47;98382.16;5092015;28;20039;-74
2021/07/21 06:16:38;;;;;;;13.80;7.57;;;;;;;21.37;69.74;98371.13;5083876;28;20085;-75
2021/07/21 06:19:04;;;;;;;9.90;6.70;;;;;;;21.72;67.61;98383.22;5116630;27;20110;-78
2021/07/21 06:21:30;;;;;;;14.82;8.23;;;;;;;21.24;66.96;98373.16;5083563;28;20481;-74
2021/07/21 06:23:55;;;;;;;10.02;7.60;;;;;;;21.54;65.49;98392.25;5071369;28;20497;-77
2021/07/21 06:26:20;;;;;;;10.02;7.47;;;;;;;21.90;62.00;98396.84;5072673;28;20039;-75
2021/07/21 06:28:48;;;;;;;17.55;8.85;;;;;;;21.70;60.15;98407.03;5073566;28;20410;-75
2021/07/21 06:31:15;;;;;;;14.70;8.35;;;;;;;21.98;59.42;98398.63;5092809;28;20020;-77
2021/07/21 06:33:41;;;;;;;12.98;8.80;;;;;;;21.83;59.53;98397.44;5092067;28;20020;-76
2021/07/21 06:36:07;;;;;;;13.15;7.75;;;;;;;21.64;60.34;98402.88;5092106;28;20048;-76
2021/07/21 06:38:32;;;;;;;15.18;7.75;;;;;;;22.01;58.99;98406.28;5089740;28;20028;-75
2021/07/21 06:40:58;;;;;;;12.35;7.55;;;;;;;22.32;59.50;98398.72;5091025;28;20026;-75
2021/07/21 06:43:23;;;;;;;12.25;7.55;;;;;;;22.37;58.30;98392.03;5091253;28;20053;-76
2021/07/21 06:45:48;;;;;;;11.27;7.85;;;;;;;21.96;60.02;98396.19;5092479;28;20028;-80
2021/07/21 06:48:14;;;;;;;11.65;7.70;;;;;;;21.99;60.28;98392.69;5090925;28;20028;-77
2021/07/21 06:50:40;;;;;;;15.60;7.65;;;;;;;21.86;59.80;98405.06;5092576;28;20027;-77
2021/07/21 06:53:05;;;;;;;8.73;7.00;;;;;;;21.80;55.65;98398.16;5092642;28;20441;-79
2021/07/21 06:55:31;;;;;;;12.75;7.78;;;;;;;21.65;59.41;98404.47;5092646;28;20464;-80
2021/07/21 06:57:58;;;;;;;12.10;8.07;;;;;;;21.95;58.21;98405.75;5092917;28;20036;-76
2021/07/21 07:00:23;;;;;;;14.68;7.95;;;;;;;22.05;53.95;98405.22;5091791;28;20388;-84
2021/07/21 07:02:49;;;;;;;11.23;7.70;;;;;;;22.10;54.61;98399.34;5093640;28;20028;-82
2021/07/21 07:05:14;;;;;;;8.63;7.28;;;;;;;22.74;53.10;98406.50;5092909;28;20028;-84
2021/07/21 07:07:40;;;;;;;10.55;7.63;;;;;;;22.84;53.24;98415.09;5092170;28;21575;-83
2021/07/21 07:10:06;;;;;;;13.63;8.45;;;;;;;22.63;52.07;98410.97;5094446;28;20534;-83
2021/07/21 07:12:32;;;;;;;12.63;7.15;;;;;;;22.67;52.30;98412.72;5092330;28;20047;-80
2021/07/21 07:14:57;;;;;;;14.85;8.52;;;;;;;22.48;52.88;98403.44;5092119;28;20484;-75
2021/07/21 07:17:25;;;;;;;9.80;7.53;;;;;;;22.76;52.63;98413.31;5075028;28;20044;-75
2021/07/21 07:19:51;;;;;;;12.57;8.00;;;;;;;22.97;51.51;98414.94;5070531;28;20083;-75
2021/07/21 07:22:16;;;;;;;9.32;7.28;;;;;;;23.07;50.50;98406.81;5070137;28;20062;-73
2021/07/21 07:24:43;;;;;;;12.43;8.00;;;;;;;22.85;51.95;98415.91;5071634;28;20017;-74
2021/07/21 07:27:08;;;;;;;9.27;7.97;;;;;;;22.98;52.20;98419.38;5072564;28;20040;-73
2021/07/21 07:29:34;;;;;;;12.13;8.13;;;;;;;22.90;52.23;98418.38;5071614;28;20025;-73
2021/07/21 07:32:00;;;;;;;10.23;7.82;;;;;;;22.69;53.29;98417.91;5071540;28;20024;-73
2021/07/21 07:34:25;;;;;;;11.15;7.72;;;;;;;22.77;52.82;98414.91;5071534;28;20166;-75
2021/07/21 07:36:51;;;;;;;11.80;7.38;;;;;;;23.31;51.47;98395.34;5070054;28;20370;-74
2021/07/21 07:39:17;;;;;;;11.85;7.70;;;;;;;23.87;49.87;98422.81;5069639;28;20029;-74
2021/07/21 07:41:43;;;;;;;12.63;7.72;;;;;;;24.21;49.15;98424.66;5071568;28;20385;-73
2021/07/21 07:44:10;;;;;;;11.88;8.48;;;;;;;23.52;49.47;98420.16;5071581;28;20111;-73
2021/07/21 07:46:36;;;;;;;12.27;8.48;;;;;;;23.54;49.81;98414.19;5071509;28;20017;-78
2021/07/21 07:49:02;;;;;;;11.02;7.47;;;;;;;23.35;50.76;98426.16;5074612;28;20029;-74
2021/07/21 07:51:29;;;;;;;13.35;7.88;;;;;;;23.86;48.80;98419.22;5071909;28;20020;-75
2021/07/21 07:53:57;;;;;;;10.60;7.55;;;;;;;23.80;46.67;98419.88;5071368;28;20021;-73
2021/07/21 07:56:23;;;;;;;9.82;7.35;;;;;;;23.88;46.37;98428.03;5071321;28;20028;-73
2021/07/21 07:58:48;;;;;;;10.20;7.68;;;;;;;23.99;46.05;98414.25;5071345;28;20060;-73
2021/07/21 08:01:14;;;;;;;9.23;7.03;;;;;;;23.61;47.26;98417.13;5069679;28;20496;-74
2021/07/21 08:03:39;;;;;;;9.90;7.60;;;;;;;23.42;47.09;98415.97;5071255;28;20478;-74
2021/07/21 08:06:05;;;;;;;11.18;7.53;;;;;;;23.49;46.91;98412.50;5070003;28;20024;-74
2021/07/21 08:08:30;;;;;;;10.48;6.78;;;;;;;24.23;45.33;98422.28;5071226;28;20033;-73
2021/07/21 08:10:56;;;;;;;12.10;7.90;;;;;;;24.27;45.11;98423.16;5069566;28;20027;-73
2021/07/21 08:13:22;;;;;;;11.40;7.10;;;;;;;24.69;43.24;98419.41;5070857;28;20120;-73
2021/07/21 08:15:49;;;;;;;9.77;7.05;;;;;;;24.40;43.88;98421.75;5070975;28;20035;-74
2021/07/21 08:18:15;;;;;;;11.85;7.60;;;;;;;24.16;43.56;98424.94;5070583;28;20477;-73
2021/07/21 08:20:43;;;;;;;12.23;7.35;;;;;;;24.26;44.10;98415.94;5070443;28;20029;-73
2021/07/21 08:23:08;;;;;;;11.18;7.60;;;;;;;23.98;45.01;98418.22;5070733;28;20473;-74
2021/07/21 08:25:34;;;;;;;8.63;6.65;;;;;;;24.55;43.68;98424.78;5069394;28;20029;-73
2021/07/21 08:28:00;;;;;;;13.82;7.03;;;;;;;24.21;44.12;98424.66;5070990;28;20055;-77
2021/07/21 08:30:26;;;;;;;10.05;8.15;;;;;;;24.76;43.32;98428.72;5070915;28;20024;-77
2021/07/21 08:32:53;;;;;;;10.80;6.57;;;;;;;24.58;44.29;98419.25;5070800;28;20039;-75
2021/07/21 08:35:23;;;;;;;10.57;7.20;;;;;;;24.62;44.60;98420.09;5069734;28;20485;-76
2021/07/21 08:37:49;;;;;;;14.60;7.07;;;;;;;24.66;43.44;98422.97;5070509;28;20469;-78
2021/07/21 08:40:15;;;;;;;15.10;7.63;;;;;;;24.50;42.72;98412.72;5070545;28;20038;-78
2021/07/21 08:42:41;;;;;;;11.98;7.45;;;;;;;24.95;43.21;98414.66;5088088;28;20024;-78
2021/07/21 08:45:08;;;;;;;10.23;7.10;;;;;;;25.14;42.40;98410.09;5110352;28;20077;-78
2021/07/21 08:47:35;;;;;;;13.50;7.90;;;;;;;24.79;42.95;98421.56;5110151;28;20076;-80
2021/07/21 08:50:03;;;;;;;9.13;7.35;;;;;;;24.51;43.48;98416.34;5109690;28;20357;-81
2021/07/21 08:52:31;;;;;;;11.60;6.85;;;;;;;24.46;43.75;98414.66;5091651;28;20112;-82
2021/07/21 08:54:58;;;;;;;8.95;7.50;;;;;;;24.85;43.29;98417.28;5079742;28;20035;-79
2021/07/21 08:57:28;;;;;;;12.50;6.55;;;;;;;25.07;42.66;98416.41;5071082;28;20042;-79
2021/07/21 08:59:54;;;;;;;9.73;7.00;;;;;;;24.29;44.73;98420.78;5090481;28;20050;-82
2021/07/21 09:02:20;;;;;;;10.43;7.82;;;;;;;24.75;44.27;98415.09;5091077;28;20528;-79
2021/07/21 09:04:45;;;;;;;9.38;7.57;;;;;;;25.16;43.14;98402.91;5090181;28;20511;-81
2021/07/21 09:07:11;;;;;;;11.82;7.63;;;;;;;24.74;43.66;98405.09;5090266;28;20104;-81
2021/07/21 09:09:37;;;;;;;10.73;6.80;;;;;;;25.45;42.91;98398.47;5090345;28;20508;-80
2021/07/21 09:12:02;;;;;;;13.88;7.30;;;;;;;25.20;43.11;98392.56;5090398;28;20063;-79
2021/07/21 09:14:28;;;;;;;10.77;6.97;;;;;;;25.19;42.40;98402.16;5087830;28;20032;-81
2021/07/21 09:17:11;;;;;;;9.35;7.28;;;;;;;25.11;43.61;98394.84;5070036;28;20032;-80
2021/07/21 09:19:43;;;;;;;11.32;7.20;;;;;;;24.74;43.80;98388.31;5088871;28;20039;-80
2021/07/21 09:22:12;;;;;;;10.32;7.40;;;;;;;25.02;43.11;98388.75;5088988;28;20012;-79
2021/07/21 09:24:38;;;;;;;11.15;7.28;;;;;;;24.94;42.87;98392.59;5090494;28;20027;-80
2021/07/21 09:27:03;;;;;;;13.23;6.95;;;;;;;24.58;44.34;98388.47;5090118;28;20028;-78
2021/07/21 09:29:29;;;;;;;9.65;7.05;;;;;;;25.22;43.37;98389.38;5090759;28;20039;-79
2021/07/21 09:31:59;;;;;;;10.40;6.68;;;;;;;24.76;43.48;98392.34;5090109;28;20065;-80
2021/07/21 09:34:25;;;;;;;12.07;7.43;;;;;;;25.12;43.50;98387.25;5089959;28;20130;-78
2021/07/21 09:37:07;;;;;;;11.68;6.63;;;;;;;25.16;44.29;98388.91;5087843;28;20032;-78
2021/07/21 09:39:38;;;;;;;8.00;6.25;;;;;;;25.45;44.50;98393.69;5078505;28;20024;-79
2021/07/21 09:42:09;;;;;;;7.72;6.20;;;;;;;26.01;42.63;98390.69;5090470;28;20361;-78
2021/07/21 09:44:40;;;;;;;10.40;7.43;;;;;;;25.67;42.67;98386.34;5073532;28;20023;-80
2021/07/21 09:47:14;;;;;;;11.88;7.22;;;;;;;26.00;42.22;98377.84;5077225;28;20114;-78
2021/07/21 09:49:40;;;;;;;9.73;7.15;;;;;;;26.11;41.41;98375.16;5093997;28;20115;-79
2021/07/21 09:52:23;;;;;;;8.73;6.78;;;;;;;25.87;41.97;98370.13;5093301;28;20118;-79
2021/07/21 09:55:10;;;;;;;11.40;7.35;;;;;;;25.66;42.47;98367.09;5093606;28;20085;-78
2021/07/21 09:57:37;;;;;;;11.93;6.93;;;;;;;25.71;42.48;98364.75;5093515;28;20032;-80
2021/07/21 10:00:24;;;;;;;9.50;7.15;;;;;;;25.12;43.52;98362.88;5095110;28;20062;-82
2021/07/21 10:02:51;;;;;;;11.45;7.82;;;;;;;25.04;43.31;98361.97;5102839;28;20036;-78
2021/07/21 10:05:17;;;;;;;9.05;7.15;;;;;;;25.53;42.87;98356.16;5093370;28;20559;-78
2021/07/21 10:10:34;;;;;;;11.98;6.90;;;;;;;25.26;43.31;98357.44;5093557;28;20055;-78
2021/07/21 10:13:08;;;;;;;10.32;7.07;;;;;;;25.15;43.51;98356.50;5089884;28;20032;-78
2021/07/21 10:15:34;;;;;;;10.30;7.45;;;;;;;25.74;43.15;98351.97;5093003;28;20027;-76
2021/07/21 10:18:15;;;;;;;8.93;6.38;;;;;;;26.29;41.37;98353.69;5093275;28;20383;-78
2021/07/21 10:20:43;;;;;;;13.57;7.75;;;;;;;25.66;42.93;98350.28;5093407;28;20438;-78
2021/07/21 10:23:11;;;;;;;11.77;7.88;;;;;;;25.73;41.91;98353.16;5093302;28;20019;-77
2021/07/21 10:25:39;;;;;;;10.48;7.60;;;;;;;26.03;42.61;98354.63;5092926;28;20039;-78
2021/07/21 10:28:06;;;;;;;14.18;7.63;;;;;;;25.79;43.64;98362.81;5094232;28;20063;-76
2021/07/21 10:30:33;;;;;;;10.32;7.22;;;;;;;26.15;42.63;98342.34;5093706;28;20024;-77
2021/07/21 10:32:59;;;;;;;10.45;6.82;;;;;;;26.34;41.91;98350.53;5093150;28;20114;-77
2021/07/21 10:35:27;;;;;;;13.00;7.88;;;;;;;25.23;43.80;98334.97;5092094;28;20036;-79
2021/07/21 10:37:54;;;;;;;11.05;7.57;;;;;;;25.48;43.68;98336.06;5092958;28;20063;-79
2021/07/21 10:40:26;;;;;;;13.15;8.23;;;;;;;26.10;42.54;98342.66;5091603;28;20077;-78
2021/07/21 10:42:57;;;;;;;12.80;7.47;;;;;;;26.14;43.69;98332.28;5093145;28;20070;-79
2021/07/21 10:45:27;;;;;;;7.93;6.80;;;;;;;25.86;44.08;98329.25;5092914;28;20024;-79
2021/07/21 10:48:01;;;;;;;14.32;8.65;;;;;;;25.80;43.93;98326.00;5093033;28;20408;-78
2021/07/21 10:50:43;;;;;;;10.77;6.85;;;;;;;25.58;43.93;98324.19;5096289;28;20436;-76
2021/07/21 10:53:48;;;;;;;12.52;7.07;;;;;;;25.57;44.73;98322.56;5111423;28;20042;-80
2021/07/21 10:59:12;;;;;;;13.23;6.75;;;;;;;25.33;44.62;98323.09;5112757;28;20046;-79
2021/07/21 11:01:44;;;;;;;14.00;7.72;;;;;;;25.62;44.95;98313.81;5115581;28;20023;-81
2021/07/21 11:04:09;;;;;;;14.07;7.75;;;;;;;25.38;45.47;98315.13;5114231;28;20098;-81
2021/07/21 11:06:55;;;;;;;10.80;7.28;;;;;;;25.75;44.41;98311.53;5112986;28;20172;-80
2021/07/21 11:09:23;;;;;;;9.35;6.32;;;;;;;25.98;44.35;98304.53;5113253;28;20043;-79
2021/07/21 11:11:54;;;;;;;8.85;6.80;;;;;;;26.49;43.19;98296.09;5112882;28;20161;-83
2021/07/21 11:14:22;;;;;;;9.40;7.32;;;;;;;26.03;43.49;98300.56;5111447;28;20042;-79
2021/07/21 11:16:51;;;;;;;13.43;7.85;;;;;;;26.04;43.61;98285.34;5112644;27;20046;-79
2021/07/21 11:19:49;;;;;;;9.07;7.47;;;;;;;25.85;44.03;98288.38;5113497;27;20027;-82
2021/07/21 11:22:17;;;;;;;11.68;7.75;;;;;;;25.63;44.98;98293.00;5101817;28;20036;-80
2021/07/21 11:25:02;;;;;;;11.38;7.80;;;;;;;25.94;43.99;98286.06;5111515;28;20027;-81
2021/07/21 11:27:45;;;;;;;10.40;6.85;;;;;;;26.04;44.61;98274.13;5112350;28;20024;-82
2021/07/21 11:30:47;;;;;;;9.60;7.22;;;;;;;26.26;43.71;98281.53;5112248;28;20019;-78
2021/07/21 11:33:44;;;;;;;11.07;6.97;;;;;;;26.09;44.96;98282.19;5113144;28;20032;-79
2021/07/21 11:36:11;;;;;;;10.40;7.00;;;;;;;25.86;45.06;98276.78;5112275;28;20047;-79
2021/07/21 11:38:53;;;;;;;9.25;6.90;;;;;;;26.49;43.49;98282.06;5111355;28;20031;-79
2021/07/21 11:41:43;;;;;;;10.98;7.28;;;;;;;26.54;43.72;98266.84;5112841;28;20034;-80
2021/07/21 11:44:09;;;;;;;15.55;7.60;;;;;;;26.08;43.92;98270.16;5072555;28;20037;-80
2021/07/21 11:46:42;;;;;;;8.32;6.80;;;;;;;25.86;44.08;98268.38;5071975;28;20024;-78